Palencia — E5U3004 — position and weather

sailwx.info

Track history (hours):
 
Tides and Currents Weather Stations Pressure Air Temp Water Temp Dewpoint Dewpoint Depression Visibility Wind Speed Wind Dir Waves Ship Positions

Palencia

Last reported at 2017-Oct-15 21:32 UTC. Time now 2017-Oct-19 09:30 UTC.
Position N 34°08' W 007°49'.

Length 122 m; draft 7.2 m.

Type: Cargo ship. MMSI: 518100059.

Date/timePositionNaut miles runAvg speedWind from/ knotsBaromVisibWave heightAir tempDewpointWater temp
2017-Oct-15 21:32N 34°08' W 007°49'114.7
2017-Oct-15 21:30N 34°09' W 007°50'6214.4
2017-Oct-15 17:13N 35°06' W 008°18'313.9
2017-Oct-15 17:00N 35°09' W 008°19'713.6
2017-Oct-15 16:30N 35°15' W 008°22'713.7
2017-Oct-15 16:00N 35°21' W 008°26'713.7
2017-Oct-15 15:31N 35°27' W 008°29'713.5
2017-Oct-15 15:00N 35°34' W 008°32'1413.6
2017-Oct-15 14:01N 35°46' W 008°40'713.7
2017-Oct-15 13:30N 35°52' W 008°43'713.7
2017-Oct-15 13:00N 35°58' W 008°46'713.4
2017-Oct-15 12:30N 36°05' W 008°50'713.4
2017-Oct-15 12:00N 36°11' W 008°53'713.4
2017-Oct-15 11:30N 36°17' W 008°57'713.6
2017-Oct-15 11:00N 36°23' W 009°00'713.8
2017-Oct-15 10:31N 36°29' W 009°04'713.3
2017-Oct-15 10:00N 36°31' W 009°12'713.9
2017-Oct-15 09:31N 36°35' W 009°20'714.6
2017-Oct-15 09:00N 36°40' W 009°26'714.3
2017-Oct-15 08:31N 36°45' W 009°32'713.4
2017-Oct-15 08:00N 36°51' W 009°35'2613.8
2017-Oct-15 06:10N 37°17' W 009°41'313.6
2017-Oct-15 05:56N 37°20' W 009°42'613.3
2017-Oct-15 05:28N 37°26' W 009°44'613.8
2017-Oct-15 05:00N 37°32' W 009°46'713.8
2017-Oct-15 04:30N 37°38' W 009°48'713.7
2017-Oct-15 04:00N 37°45' W 009°49'713.7
2017-Oct-15 03:30N 37°52' W 009°51'713.7
2017-Oct-15 03:00N 37°59' W 009°52'714.0
2017-Oct-15 02:30N 38°06' W 009°54'714.4
2017-Oct-15 02:00N 38°12' W 009°56'714.0
2017-Oct-15 01:30N 38°19' W 009°59'713.8
2017-Oct-15 01:01N 38°26' W 010°01'713.5
2017-Oct-15 00:30N 38°32' W 010°03'713.8
2017-Oct-15 00:00N 38°39' W 010°05'714.3
2017-Oct-14 23:31N 38°46' W 010°06'713.8
2017-Oct-14 23:00N 38°53' W 010°07'713.8
2017-Oct-14 22:30N 38°60' W 010°07'713.8
2017-Oct-14 22:00N 39°07' W 010°07'714.0
2017-Oct-14 21:30N 39°14' W 010°07'713.9
2017-Oct-14 21:00N 39°21' W 010°07'713.5
2017-Oct-14 20:30N 39°28' W 010°06'713.0
2017-Oct-14 20:00N 39°34' W 010°06'713.3
2017-Oct-14 19:30N 39°41' W 010°06'713.7
2017-Oct-14 19:00N 39°48' W 010°06'38912.3
2017-Oct-13 11:20N 45°07' W 005°03'514.7
2017-Oct-13 11:00N 45°09' W 004°57'715.0
2017-Oct-13 10:30N 45°12' W 004°47'714.8
2017-Oct-13 10:00N 45°15' W 004°38'1014.3
2017-Oct-13 09:20N 45°18' W 004°25'514.3
2017-Oct-13 09:00N 45°20' W 004°19'914.5
2017-Oct-13 08:24N 45°24' W 004°08'614.9
2017-Oct-13 08:00N 45°26' W 003°60'815.0
2017-Oct-13 07:30N 45°29' W 003°50'1714.9
2017-Oct-13 06:22N 45°36' W 003°28'2014.4
2017-Oct-13 04:58N 45°48' W 003°05'1114.3
2017-Oct-13 04:13N 45°51' W 002°50'314.4
2017-Oct-13 04:00N 45°52' W 002°46'714.6
2017-Oct-13 03:30N 45°55' W 002°36'715.0
2017-Oct-13 03:00N 45°57' W 002°26'714.6
2017-Oct-13 02:30N 45°58' W 002°15'714.8
2017-Oct-13 02:00N 46°01' W 002°06'714.7
2017-Oct-13 01:31N 46°04' W 001°56'815.1
2017-Oct-13 01:01N 46°07' W 001°46'714.4
2017-Oct-13 00:31N 46°08' W 001°35'815.5
2017-Oct-13 00:00N 46°07' W 001°24'612.8
2017-Oct-12 23:31N 46°08' W 001°15'2 4.1
2017-Oct-12 22:59N 46°10' W 001°14'0 0.0
2017-Oct-12 22:29N 46°10' W 001°14'0 0.0
2017-Oct-12 21:59N 46°10' W 001°14'0 0.0
2017-Oct-12 21:29N 46°10' W 001°14'0 0.0
2017-Oct-12 20:59N 46°10' W 001°14'0 0.0
2017-Oct-12 20:26N 46°10' W 001°14'0 0.0
2017-Oct-12 19:59N 46°10' W 001°14'0 0.0
2017-Oct-12 19:29N 46°10' W 001°14'0 0.0
2017-Oct-12 18:59N 46°10' W 001°14'0 0.0
2017-Oct-12 18:29N 46°10' W 001°14'0 0.0
2017-Oct-12 17:59N 46°10' W 001°14'0 0.0
2017-Oct-12 17:29N 46°10' W 001°14'0 0.0
2017-Oct-12 16:59N 46°10' W 001°14'0 0.0
2017-Oct-12 16:29N 46°10' W 001°14'0 0.0
2017-Oct-12 15:59N 46°10' W 001°14'0 0.0
2017-Oct-12 15:29N 46°10' W 001°14'0 0.0
2017-Oct-12 14:59N 46°10' W 001°14'0 0.0
2017-Oct-12 14:29N 46°10' W 001°14'0 0.0
2017-Oct-12 13:56N 46°10' W 001°14'0 0.0
2017-Oct-12 13:29N 46°10' W 001°14'0 0.0
2017-Oct-12 12:59N 46°10' W 001°14'0 0.0
2017-Oct-12 12:29N 46°10' W 001°14'0 0.0
2017-Oct-12 11:53N 46°10' W 001°14'0 0.0
2017-Oct-12 11:29N 46°10' W 001°14'0 0.0
2017-Oct-12 10:59N 46°10' W 001°14'0 0.0
2017-Oct-12 10:29N 46°10' W 001°14'0 0.0
2017-Oct-12 09:59N 46°10' W 001°14'0 0.0
2017-Oct-12 09:29N 46°10' W 001°14'0 0.0
2017-Oct-12 08:59N 46°10' W 001°14'0 0.0
2017-Oct-12 08:29N 46°10' W 001°14'0 0.0
2017-Oct-12 07:59N 46°10' W 001°14'0 0.0
2017-Oct-12 07:29N 46°10' W 001°14'0 0.0
2017-Oct-12 06:59N 46°10' W 001°14'0 0.0
2017-Oct-12 06:26N 46°10' W 001°14'0 0.0
2017-Oct-12 05:59N 46°10' W 001°14'0 0.0
2017-Oct-12 05:29N 46°10' W 001°14'0 0.0
2017-Oct-12 04:59N 46°10' W 001°14'0 0.0
2017-Oct-12 04:29N 46°10' W 001°14'0 0.0
2017-Oct-12 03:59N 46°10' W 001°14'0 0.0
2017-Oct-12 03:29N 46°10' W 001°14'0 0.0
2017-Oct-12 02:59N 46°10' W 001°14'0 0.0
2017-Oct-12 02:29N 46°10' W 001°14'0 0.0
2017-Oct-12 01:59N 46°10' W 001°14'0 0.0
2017-Oct-12 01:29N 46°10' W 001°14'0 0.0
2017-Oct-12 00:59N 46°10' W 001°14'0 0.0
2017-Oct-12 00:29N 46°10' W 001°14'0 0.0
2017-Oct-11 23:53N 46°10' W 001°14'0 0.0
2017-Oct-11 23:26N 46°10' W 001°14'0 0.0
2017-Oct-11 22:59N 46°10' W 001°14'0 0.0
2017-Oct-11 22:29N 46°10' W 001°14'0 0.0
2017-Oct-11 21:59N 46°10' W 001°14'0 0.0
2017-Oct-11 21:29N 46°10' W 001°14'0 0.0
2017-Oct-11 20:59N 46°10' W 001°14'0 0.0
2017-Oct-11 20:29N 46°10' W 001°14'0 0.0
2017-Oct-11 19:56N 46°10' W 001°14'0 0.0
2017-Oct-11 19:29N 46°10' W 001°14'0 0.0
2017-Oct-11 18:59N 46°10' W 001°14'0 0.0
2017-Oct-11 18:29N 46°10' W 001°14'0 0.0
2017-Oct-11 17:59N 46°10' W 001°14'0 0.0
2017-Oct-11 17:26N 46°10' W 001°14'0 0.0
2017-Oct-11 16:59N 46°10' W 001°14'89 5.1
2017-Oct-10 23:45N 44°54' W 002°21'1512.0
2017-Oct-10 22:29N 44°40' W 002°29'612.3
2017-Oct-10 22:00N 44°35' W 002°31'612.4
2017-Oct-10 21:30N 44°29' W 002°35'612.3
2017-Oct-10 21:00N 44°23' W 002°38'612.4
2017-Oct-10 20:30N 44°17' W 002°40'612.7
2017-Oct-10 20:00N 44°11' W 002°42'612.5
2017-Oct-10 19:30N 44°05' W 002°45'612.2
2017-Oct-10 19:00N 43°59' W 002°47'612.0
2017-Oct-10 18:30N 43°54' W 002°50'612.5
2017-Oct-10 18:00N 43°48' W 002°53'612.6
2017-Oct-10 17:30N 43°42' W 002°56'612.7
2017-Oct-10 17:01N 43°36' W 002°59'612.8
2017-Oct-10 16:30N 43°30' W 003°02'612.9
2017-Oct-10 16:00N 43°24' W 003°05'4 8.4
2017-Oct-10 15:30N 43°20' W 003°02'0 0.9
2017-Oct-10 15:00N 43°20' W 003°02'0 0.0
2017-Oct-10 13:58N 43°20' W 003°02'0 0.0
2017-Oct-10 13:28N 43°20' W 003°02'0 0.0
2017-Oct-10 12:58N 43°20' W 003°02'0 0.0
2017-Oct-10 12:28N 43°20' W 003°02'0 0.0
2017-Oct-10 11:58N 43°20' W 003°02'0 0.0
2017-Oct-10 11:28N 43°20' W 003°02'0 0.0
2017-Oct-10 10:58N 43°20' W 003°02'0 0.0
2017-Oct-10 10:28N 43°20' W 003°02'0 0.0
2017-Oct-10 09:58N 43°20' W 003°02'0 0.0
2017-Oct-10 09:28N 43°20' W 003°02'0 0.0
2017-Oct-10 08:58N 43°20' W 003°02'0 0.0
2017-Oct-10 08:28N 43°20' W 003°02'0 0.0
2017-Oct-10 07:58N 43°20' W 003°02'0 0.0
2017-Oct-10 07:28N 43°20' W 003°02'0 0.0
2017-Oct-10 06:58N 43°20' W 003°02'0 0.0
2017-Oct-10 06:28N 43°20' W 003°02'0 0.0
2017-Oct-10 05:58N 43°20' W 003°02'0 0.0
2017-Oct-10 05:28N 43°20' W 003°02'0 0.0
2017-Oct-10 04:58N 43°20' W 003°02'0 0.0
2017-Oct-10 04:28N 43°20' W 003°02'0 0.0
2017-Oct-10 03:58N 43°20' W 003°02'0 0.0
2017-Oct-10 03:28N 43°20' W 003°02'0 0.0
2017-Oct-10 02:58N 43°20' W 003°02'0 0.0
2017-Oct-10 02:28N 43°20' W 003°02'0 0.0
2017-Oct-10 01:58N 43°20' W 003°02'0 0.0
2017-Oct-10 01:28N 43°20' W 003°02'0 0.0
2017-Oct-10 00:58N 43°20' W 003°02'0 0.0
2017-Oct-10 00:28N 43°20' W 003°02'0 0.0
2017-Oct-09 23:58N 43°20' W 003°02'0 0.0
2017-Oct-09 23:28N 43°20' W 003°02'0 0.0
2017-Oct-09 22:55N 43°20' W 003°02'0 0.0
2017-Oct-09 22:28N 43°20' W 003°02'0 0.0
2017-Oct-09 21:58N 43°20' W 003°02'0 0.0
2017-Oct-09 21:28N 43°20' W 003°02'0 0.0
2017-Oct-09 20:58N 43°20' W 003°02'0 0.0
2017-Oct-09 20:28N 43°20' W 003°02'0 0.0
2017-Oct-09 19:58N 43°20' W 003°02'0 0.0
2017-Oct-09 19:28N 43°20' W 003°02'0 0.0
2017-Oct-09 18:58N 43°20' W 003°02'0 0.0
2017-Oct-09 18:28N 43°20' W 003°02'0 0.0
2017-Oct-09 17:58N 43°20' W 003°02'0 0.0
2017-Oct-09 17:25N 43°20' W 003°02'0 0.0
2017-Oct-09 16:58N 43°20' W 003°02'0 0.0
2017-Oct-09 16:28N 43°20' W 003°02'0 0.0
2017-Oct-09 15:58N 43°20' W 003°02'0 0.0
2017-Oct-09 15:28N 43°20' W 003°02'0 0.0
2017-Oct-09 14:58N 43°20' W 003°02'0 0.0
2017-Oct-09 14:28N 43°20' W 003°02'0 0.0
2017-Oct-09 13:58N 43°20' W 003°02'0 0.0
2017-Oct-09 13:28N 43°20' W 003°02'0 0.0
2017-Oct-09 12:58N 43°20' W 003°02'0 0.0
2017-Oct-09 12:28N 43°20' W 003°02'0 0.0
2017-Oct-09 11:58N 43°20' W 003°02'0 0.0
2017-Oct-09 11:28N 43°20' W 003°02'0 0.0
2017-Oct-09 10:58N 43°20' W 003°02'0 0.0
2017-Oct-09 10:28N 43°20' W 003°02'0 0.0
2017-Oct-09 09:58N 43°20' W 003°02'0 0.0
2017-Oct-09 09:28N 43°20' W 003°02'0 0.0
2017-Oct-09 08:58N 43°20' W 003°02'0 0.0
2017-Oct-09 08:28N 43°20' W 003°02'0 0.0
2017-Oct-09 07:58N 43°20' W 003°02'0 0.0
2017-Oct-09 07:28N 43°20' W 003°02'0 0.0
2017-Oct-09 06:58N 43°20' W 003°02'0 0.0
2017-Oct-09 06:28N 43°20' W 003°02'0 0.0
2017-Oct-09 05:58N 43°20' W 003°02'0 0.0
2017-Oct-09 05:28N 43°20' W 003°02'0 0.0
2017-Oct-09 04:58N 43°20' W 003°02'0 0.0
2017-Oct-09 04:28N 43°20' W 003°02'0 0.0
2017-Oct-09 03:58N 43°20' W 003°02'0 0.0
2017-Oct-09 03:28N 43°20' W 003°02'0 0.0
2017-Oct-09 02:58N 43°20' W 003°02'0 0.0
2017-Oct-09 02:28N 43°20' W 003°02'0 0.0
2017-Oct-09 01:58N 43°20' W 003°02'0 0.0
2017-Oct-09 01:28N 43°20' W 003°02'0 0.0
2017-Oct-09 00:58N 43°20' W 003°02'0 0.0
2017-Oct-09 00:25N 43°20' W 003°02'0 0.0
2017-Oct-08 23:58N 43°20' W 003°02'0 0.0
2017-Oct-08 23:28N 43°20' W 003°02'0 0.0
2017-Oct-08 22:58N 43°20' W 003°02'0 0.0
2017-Oct-08 22:28N 43°20' W 003°02'0 0.0
2017-Oct-08 21:58N 43°20' W 003°02'0 0.0
2017-Oct-08 21:28N 43°20' W 003°02'0 0.0
2017-Oct-08 20:58N 43°20' W 003°02'0 0.0
2017-Oct-08 20:28N 43°20' W 003°02'0 0.0
2017-Oct-08 19:58N 43°20' W 003°02'0 0.0
2017-Oct-08 19:28N 43°20' W 003°02'0 0.0
2017-Oct-08 18:58N 43°20' W 003°02'0 0.0
2017-Oct-08 18:28N 43°20' W 003°02'0 0.0
2017-Oct-08 17:58N 43°20' W 003°02'0 0.0
2017-Oct-08 17:28N 43°20' W 003°02'0 0.0
2017-Oct-08 16:58N 43°20' W 003°02'0 0.0
2017-Oct-08 16:28N 43°20' W 003°02'0 0.0
2017-Oct-08 15:58N 43°20' W 003°02'0 0.0
2017-Oct-08 15:28N 43°20' W 003°02'0 0.0
2017-Oct-08 14:58N 43°20' W 003°02'0 0.0
2017-Oct-08 14:28N 43°20' W 003°02'0 0.0
2017-Oct-08 13:58N 43°20' W 003°02'0 0.0
2017-Oct-08 13:28N 43°20' W 003°02'0 0.0
2017-Oct-08 12:58N 43°20' W 003°02'0 0.0
2017-Oct-08 12:28N 43°20' W 003°02'0 0.0
2017-Oct-08 11:58N 43°20' W 003°02'0 0.0
2017-Oct-08 11:28N 43°20' W 003°02'0 0.0
2017-Oct-08 10:58N 43°20' W 003°02'0 0.0
2017-Oct-08 10:28N 43°20' W 003°02'0 0.0
2017-Oct-08 09:58N 43°20' W 003°02'0 0.0
2017-Oct-08 09:28N 43°20' W 003°02'0 0.0
2017-Oct-08 08:58N 43°20' W 003°02'0 0.0
2017-Oct-08 08:28N 43°20' W 003°02'58 9.0
2017-Oct-08 02:00N 43°45' W 004°15'611.5
2017-Oct-08 01:30N 43°45' W 004°23'611.5
2017-Oct-08 01:00N 43°46' W 004°31'611.7
2017-Oct-08 00:30N 43°46' W 004°39'611.5
2017-Oct-08 00:00N 43°46' W 004°47'611.4
2017-Oct-07 23:30N 43°47' W 004°55'611.6
2017-Oct-07 23:00N 43°47' W 005°03'612.1
2017-Oct-07 22:30N 43°48' W 005°11'611.6
2017-Oct-07 22:00N 43°48' W 005°19'611.5
2017-Oct-07 21:30N 43°48' W 005°27'611.6
2017-Oct-07 21:00N 43°49' W 005°35'611.9
2017-Oct-07 20:28N 43°49' W 005°44'511.7
2017-Oct-07 20:00N 43°50' W 005°51'611.8
2017-Oct-07 19:30N 43°50' W 005°60'611.9
2017-Oct-07 18:59N 43°50' W 006°08'611.9
2017-Oct-07 18:30N 43°51' W 006°16'611.7
2017-Oct-07 18:00N 43°51' W 006°24'611.7
2017-Oct-07 17:30N 43°51' W 006°32'611.9
2017-Oct-07 17:00N 43°52' W 006°40'611.9
2017-Oct-07 16:30N 43°52' W 006°49'611.8
2017-Oct-07 16:00N 43°52' W 006°57'1612.2
2017-Oct-07 14:44N 43°52' W 007°18'1712.5
2017-Oct-07 13:20N 43°52' W 007°43'2711.5
2017-Oct-07 10:59N 43°47' W 008°20'511.3
2017-Oct-07 10:30N 43°46' W 008°27'611.3
2017-Oct-07 09:59N 43°44' W 008°35'611.5
2017-Oct-07 09:30N 43°43' W 008°42'611.4
2017-Oct-07 08:59N 43°40' W 008°50'511.1
2017-Oct-07 08:30N 43°38' W 008°56'611.2
2017-Oct-07 07:56N 43°35' W 009°04'511.3
2017-Oct-07 07:30N 43°33' W 009°10'611.4
2017-Oct-07 07:00N 43°31' W 009°17'611.2
2017-Oct-07 06:30N 43°28' W 009°24'610.9
2017-Oct-07 06:00N 43°26' W 009°31'510.8
2017-Oct-07 05:30N 43°23' W 009°37'510.5
2017-Oct-07 05:00N 43°19' W 009°42'911.8
2017-Oct-07 04:14N 43°11' W 009°47'312.1
2017-Oct-07 04:00N 43°08' W 009°47'612.4
2017-Oct-07 03:30N 43°02' W 009°47'612.2
2017-Oct-07 03:00N 42°56' W 009°47'7413.8
2017-Oct-06 21:39N 41°44' W 009°25'213.8
2017-Oct-06 21:29N 41°42' W 009°24'1013.9
2017-Oct-06 20:47N 41°33' W 009°19'414.5
2017-Oct-06 20:30N 41°29' W 009°16'714.0
2017-Oct-06 20:00N 41°23' W 009°13'713.5
2017-Oct-06 19:30N 41°17' W 009°09'612.8
2017-Oct-06 19:00N 41°11' W 009°07'612.6
2017-Oct-06 18:30N 41°05' W 009°04'713.2
2017-Oct-06 17:57N 40°58' W 008°60'613.1
2017-Oct-06 17:29N 40°52' W 008°56'712.9
2017-Oct-06 16:56N 40°46' W 008°52'612.9
2017-Oct-06 16:30N 40°41' W 008°49'5 1.7
2017-Oct-06 13:30N 40°39' W 008°43'0 0.0
2017-Oct-05 21:59N 40°39' W 008°43'  
Track history (hours):
 
Tides and Currents Weather Stations Pressure Air Temp Water Temp Dewpoint Dewpoint Depression Visibility Wind Speed Wind Dir Waves Ship Positions

Palencia

Last reported at 2017-Oct-15 21:32 UTC. Time now 2017-Oct-19 09:30 UTC.
Position N 34°08' W 007°49'.

Length 122 m; draft 7.2 m.

Type: Cargo ship. MMSI: 518100059.

Date/timePositionNaut miles runAvg speedWind from/ knotsBaromVisibWave heightAir tempDewpointWater temp
2017-Oct-15 21:32N 34°08' W 007°49'114.7
2017-Oct-15 21:30N 34°09' W 007°50'6214.4
2017-Oct-15 17:13N 35°06' W 008°18'313.9
2017-Oct-15 17:00N 35°09' W 008°19'713.6
2017-Oct-15 16:30N 35°15' W 008°22'713.7
2017-Oct-15 16:00N 35°21' W 008°26'713.7
2017-Oct-15 15:31N 35°27' W 008°29'713.5
2017-Oct-15 15:00N 35°34' W 008°32'1413.6
2017-Oct-15 14:01N 35°46' W 008°40'713.7
2017-Oct-15 13:30N 35°52' W 008°43'713.7
2017-Oct-15 13:00N 35°58' W 008°46'713.4
2017-Oct-15 12:30N 36°05' W 008°50'713.4
2017-Oct-15 12:00N 36°11' W 008°53'713.4
2017-Oct-15 11:30N 36°17' W 008°57'713.6
2017-Oct-15 11:00N 36°23' W 009°00'713.8
2017-Oct-15 10:31N 36°29' W 009°04'713.3
2017-Oct-15 10:00N 36°31' W 009°12'713.9
2017-Oct-15 09:31N 36°35' W 009°20'714.6
2017-Oct-15 09:00N 36°40' W 009°26'714.3
2017-Oct-15 08:31N 36°45' W 009°32'713.4
2017-Oct-15 08:00N 36°51' W 009°35'2613.8
2017-Oct-15 06:10N 37°17' W 009°41'313.6
2017-Oct-15 05:56N 37°20' W 009°42'613.3
2017-Oct-15 05:28N 37°26' W 009°44'613.8
2017-Oct-15 05:00N 37°32' W 009°46'713.8
2017-Oct-15 04:30N 37°38' W 009°48'713.7
2017-Oct-15 04:00N 37°45' W 009°49'713.7
2017-Oct-15 03:30N 37°52' W 009°51'713.7
2017-Oct-15 03:00N 37°59' W 009°52'714.0
2017-Oct-15 02:30N 38°06' W 009°54'714.4
2017-Oct-15 02:00N 38°12' W 009°56'714.0
2017-Oct-15 01:30N 38°19' W 009°59'713.8
2017-Oct-15 01:01N 38°26' W 010°01'713.5
2017-Oct-15 00:30N 38°32' W 010°03'713.8
2017-Oct-15 00:00N 38°39' W 010°05'714.3
2017-Oct-14 23:31N 38°46' W 010°06'713.8
2017-Oct-14 23:00N 38°53' W 010°07'713.8
2017-Oct-14 22:30N 38°60' W 010°07'713.8
2017-Oct-14 22:00N 39°07' W 010°07'714.0
2017-Oct-14 21:30N 39°14' W 010°07'713.9
2017-Oct-14 21:00N 39°21' W 010°07'713.5
2017-Oct-14 20:30N 39°28' W 010°06'713.0
2017-Oct-14 20:00N 39°34' W 010°06'713.3
2017-Oct-14 19:30N 39°41' W 010°06'713.7
2017-Oct-14 19:00N 39°48' W 010°06'38912.3
2017-Oct-13 11:20N 45°07' W 005°03'514.7
2017-Oct-13 11:00N 45°09' W 004°57'715.0
2017-Oct-13 10:30N 45°12' W 004°47'714.8
2017-Oct-13 10:00N 45°15' W 004°38'1014.3
2017-Oct-13 09:20N 45°18' W 004°25'514.3
2017-Oct-13 09:00N 45°20' W 004°19'914.5
2017-Oct-13 08:24N 45°24' W 004°08'614.9
2017-Oct-13 08:00N 45°26' W 003°60'815.0
2017-Oct-13 07:30N 45°29' W 003°50'1714.9
2017-Oct-13 06:22N 45°36' W 003°28'2014.4
2017-Oct-13 04:58N 45°48' W 003°05'1114.3
2017-Oct-13 04:13N 45°51' W 002°50'314.4
2017-Oct-13 04:00N 45°52' W 002°46'714.6
2017-Oct-13 03:30N 45°55' W 002°36'715.0
2017-Oct-13 03:00N 45°57' W 002°26'714.6
2017-Oct-13 02:30N 45°58' W 002°15'714.8
2017-Oct-13 02:00N 46°01' W 002°06'714.7
2017-Oct-13 01:31N 46°04' W 001°56'815.1
2017-Oct-13 01:01N 46°07' W 001°46'714.4
2017-Oct-13 00:31N 46°08' W 001°35'815.5
2017-Oct-13 00:00N 46°07' W 001°24'612.8
2017-Oct-12 23:31N 46°08' W 001°15'2 4.1
2017-Oct-12 22:59N 46°10' W 001°14'0 0.0
2017-Oct-12 22:29N 46°10' W 001°14'0 0.0
2017-Oct-12 21:59N 46°10' W 001°14'0 0.0
2017-Oct-12 21:29N 46°10' W 001°14'0 0.0
2017-Oct-12 20:59N 46°10' W 001°14'0 0.0
2017-Oct-12 20:26N 46°10' W 001°14'0 0.0
2017-Oct-12 19:59N 46°10' W 001°14'0 0.0
2017-Oct-12 19:29N 46°10' W 001°14'0 0.0
2017-Oct-12 18:59N 46°10' W 001°14'0 0.0
2017-Oct-12 18:29N 46°10' W 001°14'0 0.0
2017-Oct-12 17:59N 46°10' W 001°14'0 0.0
2017-Oct-12 17:29N 46°10' W 001°14'0 0.0
2017-Oct-12 16:59N 46°10' W 001°14'0 0.0
2017-Oct-12 16:29N 46°10' W 001°14'0 0.0
2017-Oct-12 15:59N 46°10' W 001°14'0 0.0
2017-Oct-12 15:29N 46°10' W 001°14'0 0.0
2017-Oct-12 14:59N 46°10' W 001°14'0 0.0
2017-Oct-12 14:29N 46°10' W 001°14'0 0.0
2017-Oct-12 13:56N 46°10' W 001°14'0 0.0
2017-Oct-12 13:29N 46°10' W 001°14'0 0.0
2017-Oct-12 12:59N 46°10' W 001°14'0 0.0
2017-Oct-12 12:29N 46°10' W 001°14'0 0.0
2017-Oct-12 11:53N 46°10' W 001°14'0 0.0
2017-Oct-12 11:29N 46°10' W 001°14'0 0.0
2017-Oct-12 10:59N 46°10' W 001°14'0 0.0
2017-Oct-12 10:29N 46°10' W 001°14'0 0.0
2017-Oct-12 09:59N 46°10' W 001°14'0 0.0
2017-Oct-12 09:29N 46°10' W 001°14'0 0.0
2017-Oct-12 08:59N 46°10' W 001°14'0 0.0
2017-Oct-12 08:29N 46°10' W 001°14'0 0.0
2017-Oct-12 07:59N 46°10' W 001°14'0 0.0
2017-Oct-12 07:29N 46°10' W 001°14'0 0.0
2017-Oct-12 06:59N 46°10' W 001°14'0 0.0
2017-Oct-12 06:26N 46°10' W 001°14'0 0.0
2017-Oct-12 05:59N 46°10' W 001°14'0 0.0
2017-Oct-12 05:29N 46°10' W 001°14'0 0.0
2017-Oct-12 04:59N 46°10' W 001°14'0 0.0
2017-Oct-12 04:29N 46°10' W 001°14'0 0.0
2017-Oct-12 03:59N 46°10' W 001°14'0 0.0
2017-Oct-12 03:29N 46°10' W 001°14'0 0.0
2017-Oct-12 02:59N 46°10' W 001°14'0 0.0
2017-Oct-12 02:29N 46°10' W 001°14'0 0.0
2017-Oct-12 01:59N 46°10' W 001°14'0 0.0
2017-Oct-12 01:29N 46°10' W 001°14'0 0.0
2017-Oct-12 00:59N 46°10' W 001°14'0 0.0
2017-Oct-12 00:29N 46°10' W 001°14'0 0.0
2017-Oct-11 23:53N 46°10' W 001°14'0 0.0
2017-Oct-11 23:26N 46°10' W 001°14'0 0.0
2017-Oct-11 22:59N 46°10' W 001°14'0 0.0
2017-Oct-11 22:29N 46°10' W 001°14'0 0.0
2017-Oct-11 21:59N 46°10' W 001°14'0 0.0
2017-Oct-11 21:29N 46°10' W 001°14'0 0.0
2017-Oct-11 20:59N 46°10' W 001°14'0 0.0
2017-Oct-11 20:29N 46°10' W 001°14'0 0.0
2017-Oct-11 19:56N 46°10' W 001°14'0 0.0
2017-Oct-11 19:29N 46°10' W 001°14'0 0.0
2017-Oct-11 18:59N 46°10' W 001°14'0 0.0
2017-Oct-11 18:29N 46°10' W 001°14'0 0.0
2017-Oct-11 17:59N 46°10' W 001°14'0 0.0
2017-Oct-11 17:26N 46°10' W 001°14'0 0.0
2017-Oct-11 16:59N 46°10' W 001°14'89 5.1
2017-Oct-10 23:45N 44°54' W 002°21'1512.0
2017-Oct-10 22:29N 44°40' W 002°29'612.3
2017-Oct-10 22:00N 44°35' W 002°31'612.4
2017-Oct-10 21:30N 44°29' W 002°35'612.3
2017-Oct-10 21:00N 44°23' W 002°38'612.4
2017-Oct-10 20:30N 44°17' W 002°40'612.7
2017-Oct-10 20:00N 44°11' W 002°42'612.5
2017-Oct-10 19:30N 44°05' W 002°45'612.2
2017-Oct-10 19:00N 43°59' W 002°47'612.0
2017-Oct-10 18:30N 43°54' W 002°50'612.5
2017-Oct-10 18:00N 43°48' W 002°53'612.6
2017-Oct-10 17:30N 43°42' W 002°56'612.7
2017-Oct-10 17:01N 43°36' W 002°59'612.8
2017-Oct-10 16:30N 43°30' W 003°02'612.9
2017-Oct-10 16:00N 43°24' W 003°05'4 8.4
2017-Oct-10 15:30N 43°20' W 003°02'0 0.9
2017-Oct-10 15:00N 43°20' W 003°02'0 0.0
2017-Oct-10 13:58N 43°20' W 003°02'0 0.0
2017-Oct-10 13:28N 43°20' W 003°02'0 0.0
2017-Oct-10 12:58N 43°20' W 003°02'0 0.0
2017-Oct-10 12:28N 43°20' W 003°02'0 0.0
2017-Oct-10 11:58N 43°20' W 003°02'0 0.0
2017-Oct-10 11:28N 43°20' W 003°02'0 0.0
2017-Oct-10 10:58N 43°20' W 003°02'0 0.0
2017-Oct-10 10:28N 43°20' W 003°02'0 0.0
2017-Oct-10 09:58N 43°20' W 003°02'0 0.0
2017-Oct-10 09:28N 43°20' W 003°02'0 0.0
2017-Oct-10 08:58N 43°20' W 003°02'0 0.0
2017-Oct-10 08:28N 43°20' W 003°02'0 0.0
2017-Oct-10 07:58N 43°20' W 003°02'0 0.0
2017-Oct-10 07:28N 43°20' W 003°02'0 0.0
2017-Oct-10 06:58N 43°20' W 003°02'0 0.0
2017-Oct-10 06:28N 43°20' W 003°02'0 0.0
2017-Oct-10 05:58N 43°20' W 003°02'0 0.0
2017-Oct-10 05:28N 43°20' W 003°02'0 0.0
2017-Oct-10 04:58N 43°20' W 003°02'0 0.0
2017-Oct-10 04:28N 43°20' W 003°02'0 0.0
2017-Oct-10 03:58N 43°20' W 003°02'0 0.0
2017-Oct-10 03:28N 43°20' W 003°02'0 0.0
2017-Oct-10 02:58N 43°20' W 003°02'0 0.0
2017-Oct-10 02:28N 43°20' W 003°02'0 0.0
2017-Oct-10 01:58N 43°20' W 003°02'0 0.0
2017-Oct-10 01:28N 43°20' W 003°02'0 0.0
2017-Oct-10 00:58N 43°20' W 003°02'0 0.0
2017-Oct-10 00:28N 43°20' W 003°02'0 0.0
2017-Oct-09 23:58N 43°20' W 003°02'0 0.0
2017-Oct-09 23:28N 43°20' W 003°02'0 0.0
2017-Oct-09 22:55N 43°20' W 003°02'0 0.0
2017-Oct-09 22:28N 43°20' W 003°02'0 0.0
2017-Oct-09 21:58N 43°20' W 003°02'0 0.0
2017-Oct-09 21:28N 43°20' W 003°02'0 0.0
2017-Oct-09 20:58N 43°20' W 003°02'0 0.0
2017-Oct-09 20:28N 43°20' W 003°02'0 0.0
2017-Oct-09 19:58N 43°20' W 003°02'0 0.0
2017-Oct-09 19:28N 43°20' W 003°02'0 0.0
2017-Oct-09 18:58N 43°20' W 003°02'0 0.0
2017-Oct-09 18:28N 43°20' W 003°02'0 0.0
2017-Oct-09 17:58N 43°20' W 003°02'0 0.0
2017-Oct-09 17:25N 43°20' W 003°02'0 0.0
2017-Oct-09 16:58N 43°20' W 003°02'0 0.0
2017-Oct-09 16:28N 43°20' W 003°02'0 0.0
2017-Oct-09 15:58N 43°20' W 003°02'0 0.0
2017-Oct-09 15:28N 43°20' W 003°02'0 0.0
2017-Oct-09 14:58N 43°20' W 003°02'0 0.0
2017-Oct-09 14:28N 43°20' W 003°02'0 0.0
2017-Oct-09 13:58N 43°20' W 003°02'0 0.0
2017-Oct-09 13:28N 43°20' W 003°02'0 0.0
2017-Oct-09 12:58N 43°20' W 003°02'0 0.0
2017-Oct-09 12:28N 43°20' W 003°02'0 0.0
2017-Oct-09 11:58N 43°20' W 003°02'0 0.0
2017-Oct-09 11:28N 43°20' W 003°02'0 0.0
2017-Oct-09 10:58N 43°20' W 003°02'0 0.0
2017-Oct-09 10:28N 43°20' W 003°02'0 0.0
2017-Oct-09 09:58N 43°20' W 003°02'0 0.0
2017-Oct-09 09:28N 43°20' W 003°02'0 0.0
2017-Oct-09 08:58N 43°20' W 003°02'0 0.0
2017-Oct-09 08:28N 43°20' W 003°02'0 0.0
2017-Oct-09 07:58N 43°20' W 003°02'0 0.0
2017-Oct-09 07:28N 43°20' W 003°02'0 0.0
2017-Oct-09 06:58N 43°20' W 003°02'0 0.0
2017-Oct-09 06:28N 43°20' W 003°02'0 0.0
2017-Oct-09 05:58N 43°20' W 003°02'0 0.0
2017-Oct-09 05:28N 43°20' W 003°02'0 0.0
2017-Oct-09 04:58N 43°20' W 003°02'0 0.0
2017-Oct-09 04:28N 43°20' W 003°02'0 0.0
2017-Oct-09 03:58N 43°20' W 003°02'0 0.0
2017-Oct-09 03:28N 43°20' W 003°02'0 0.0
2017-Oct-09 02:58N 43°20' W 003°02'0 0.0
2017-Oct-09 02:28N 43°20' W 003°02'0 0.0
2017-Oct-09 01:58N 43°20' W 003°02'0 0.0
2017-Oct-09 01:28N 43°20' W 003°02'0 0.0
2017-Oct-09 00:58N 43°20' W 003°02'0 0.0
2017-Oct-09 00:25N 43°20' W 003°02'0 0.0
2017-Oct-08 23:58N 43°20' W 003°02'0 0.0
2017-Oct-08 23:28N 43°20' W 003°02'0 0.0
2017-Oct-08 22:58N 43°20' W 003°02'0 0.0
2017-Oct-08 22:28N 43°20' W 003°02'0 0.0
2017-Oct-08 21:58N 43°20' W 003°02'0 0.0
2017-Oct-08 21:28N 43°20' W 003°02'0 0.0
2017-Oct-08 20:58N 43°20' W 003°02'0 0.0
2017-Oct-08 20:28N 43°20' W 003°02'0 0.0
2017-Oct-08 19:58N 43°20' W 003°02'0 0.0
2017-Oct-08 19:28N 43°20' W 003°02'0 0.0
2017-Oct-08 18:58N 43°20' W 003°02'0 0.0
2017-Oct-08 18:28N 43°20' W 003°02'0 0.0
2017-Oct-08 17:58N 43°20' W 003°02'0 0.0
2017-Oct-08 17:28N 43°20' W 003°02'0 0.0
2017-Oct-08 16:58N 43°20' W 003°02'0 0.0
2017-Oct-08 16:28N 43°20' W 003°02'0 0.0
2017-Oct-08 15:58N 43°20' W 003°02'0 0.0
2017-Oct-08 15:28N 43°20' W 003°02'0 0.0
2017-Oct-08 14:58N 43°20' W 003°02'0 0.0
2017-Oct-08 14:28N 43°20' W 003°02'0 0.0
2017-Oct-08 13:58N 43°20' W 003°02'0 0.0
2017-Oct-08 13:28N 43°20' W 003°02'0 0.0
2017-Oct-08 12:58N 43°20' W 003°02'0 0.0
2017-Oct-08 12:28N 43°20' W 003°02'0 0.0
2017-Oct-08 11:58N 43°20' W 003°02'0 0.0
2017-Oct-08 11:28N 43°20' W 003°02'0 0.0
2017-Oct-08 10:58N 43°20' W 003°02'0 0.0
2017-Oct-08 10:28N 43°20' W 003°02'0 0.0
2017-Oct-08 09:58N 43°20' W 003°02'0 0.0
2017-Oct-08 09:28N 43°20' W 003°02'0 0.0
2017-Oct-08 08:58N 43°20' W 003°02'0 0.0
2017-Oct-08 08:28N 43°20' W 003°02'58 9.0
2017-Oct-08 02:00N 43°45' W 004°15'611.5
2017-Oct-08 01:30N 43°45' W 004°23'611.5
2017-Oct-08 01:00N 43°46' W 004°31'611.7
2017-Oct-08 00:30N 43°46' W 004°39'611.5
2017-Oct-08 00:00N 43°46' W 004°47'611.4
2017-Oct-07 23:30N 43°47' W 004°55'611.6
2017-Oct-07 23:00N 43°47' W 005°03'612.1
2017-Oct-07 22:30N 43°48' W 005°11'611.6
2017-Oct-07 22:00N 43°48' W 005°19'611.5
2017-Oct-07 21:30N 43°48' W 005°27'611.6
2017-Oct-07 21:00N 43°49' W 005°35'611.9
2017-Oct-07 20:28N 43°49' W 005°44'511.7
2017-Oct-07 20:00N 43°50' W 005°51'611.8
2017-Oct-07 19:30N 43°50' W 005°60'611.9
2017-Oct-07 18:59N 43°50' W 006°08'611.9
2017-Oct-07 18:30N 43°51' W 006°16'611.7
2017-Oct-07 18:00N 43°51' W 006°24'611.7
2017-Oct-07 17:30N 43°51' W 006°32'611.9
2017-Oct-07 17:00N 43°52' W 006°40'611.9
2017-Oct-07 16:30N 43°52' W 006°49'611.8
2017-Oct-07 16:00N 43°52' W 006°57'1612.2
2017-Oct-07 14:44N 43°52' W 007°18'1712.5
2017-Oct-07 13:20N 43°52' W 007°43'2711.5
2017-Oct-07 10:59N 43°47' W 008°20'511.3
2017-Oct-07 10:30N 43°46' W 008°27'611.3
2017-Oct-07 09:59N 43°44' W 008°35'611.5
2017-Oct-07 09:30N 43°43' W 008°42'611.4
2017-Oct-07 08:59N 43°40' W 008°50'511.1
2017-Oct-07 08:30N 43°38' W 008°56'611.2
2017-Oct-07 07:56N 43°35' W 009°04'511.3
2017-Oct-07 07:30N 43°33' W 009°10'611.4
2017-Oct-07 07:00N 43°31' W 009°17'611.2
2017-Oct-07 06:30N 43°28' W 009°24'610.9
2017-Oct-07 06:00N 43°26' W 009°31'510.8
2017-Oct-07 05:30N 43°23' W 009°37'510.5
2017-Oct-07 05:00N 43°19' W 009°42'911.8
2017-Oct-07 04:14N 43°11' W 009°47'312.1
2017-Oct-07 04:00N 43°08' W 009°47'612.4
2017-Oct-07 03:30N 43°02' W 009°47'612.2
2017-Oct-07 03:00N 42°56' W 009°47'7413.8
2017-Oct-06 21:39N 41°44' W 009°25'213.8
2017-Oct-06 21:29N 41°42' W 009°24'1013.9
2017-Oct-06 20:47N 41°33' W 009°19'414.5
2017-Oct-06 20:30N 41°29' W 009°16'714.0
2017-Oct-06 20:00N 41°23' W 009°13'713.5
2017-Oct-06 19:30N 41°17' W 009°09'612.8
2017-Oct-06 19:00N 41°11' W 009°07'612.6
2017-Oct-06 18:30N 41°05' W 009°04'713.2
2017-Oct-06 17:57N 40°58' W 008°60'613.1
2017-Oct-06 17:29N 40°52' W 008°56'712.9
2017-Oct-06 16:56N 40°46' W 008°52'612.9
2017-Oct-06 16:30N 40°41' W 008°49'5 1.7
2017-Oct-06 13:30N 40°39' W 008°43'0 0.0
2017-Oct-05 21:59N 40°39' W 008°43'  

Dump ship's entire track history